Nearby METAR Reports

 

KBED - Bedford, Massachusetts, USA
Distance from station: ENE 12mi, 20km
Updated: Wed, 12-Aug-2020 7:51am EDT
Mostly cloudy
Mostly cloudy
 Wind from WSW
Wind: WSW 7 mph , 11 km/h
Temperature: 77°F , 25°C
Dew Point: 70°F , 21°C
Humidity: 79%
Barometer: 29.99 inHg , 1015.6 hPa
Clouds: Mostly cloudy
Visibility: 10 miles , 16 km
Cloud details: Mostly cloudy 8000 ft
2020/08/12 11:51 KBED 121151Z 25006KT 10SM BKN080 25/21 A2999 RMK AO2 SLP163 60000 T02500211 10256 20239 51015
KFIT - Fitchburg, Massachusetts, USA
Distance from station: NW 15mi, 24km
Updated: Wed, 12-Aug-2020 7:52am EDT
Clear
Clear
 Wind from WNW
Wind: WNW 5 mph , 7 km/h
Temperature: 77°F , 25°C
Dew Point: 66°F , 19°C
Humidity: 69%
Barometer: 30.02 inHg , 1016.6 hPa
Clouds: Clear
Visibility: 10 miles , 16 km
2020/08/12 11:52 KFIT 121152Z AUTO 30004KT 10SM CLR 25/19 A3002 RMK AO2 SLP164 T02500194 10256 20233 53018 TSNO
 
KORH - Worcester, Massachusetts, USA
Distance from station: WSW 20mi, 32km
Updated: Wed, 12-Aug-2020 7:54am EDT
Clear
Clear
 Wind from WSW
Wind: WSW 8 mph , 13 km/h
Temperature: 73°F , 23°C
Dew Point: 68°F , 20°C
Humidity: 83%
Barometer: 30.05 inHg , 1017.6 hPa
Clouds: Clear
Visibility: 10 miles , 16 km
2020/08/12 11:54 KORH 121154Z 25007KT 10SM CLR 23/20 A3005 RMK AO2 SLP169 60003 70003 T02280200 10239 20211 53017
KOWD - Norwood, Massachusetts, USA
Distance from station: SE 24mi, 39km
Updated: Wed, 12-Aug-2020 7:53am EDT
Clear
Clear
 Wind from WSW
Wind: WSW 7 mph , 11 km/h
Temperature: 79°F , 26°C
Dew Point: 70°F , 21°C
Humidity: 74%
Barometer: 30.00 inHg , 1015.9 hPa
Clouds: Clear
Visibility: 10 miles , 16 km
2020/08/12 11:53 KOWD 121153Z 25006KT 10SM CLR 26/21 A3000 RMK AO2 SLP159 T02610206 10261 20250 53016
 
KMQE - East Milton, Massachusetts, USA
Distance from station: ESE 25mi, 40km
Updated: Wed, 12-Aug-2020 7:51am EDT

 Wind from WSW
Wind: WSW 10 mph , 17 km/h
Temperature: 75°F , 24°C
Dew Point: 70°F , 21°C
Humidity: 83%
Barometer: 30.01 inHg , 1016.3 hPa
2020/08/12 11:51 KMQE 121151Z AUTO 25009KT 24/21 A3001 RMK AO1 SLP170 T02390206 10244 20233 53014
KASH - Nashua/Boire Fld, New Hampshire, USA
Distance from station: N 26mi, 42km
Updated: Wed, 12-Aug-2020 7:56am EDT
Clear
Clear
 Wind from WNW
Wind: WNW 8 mph , 13 km/h
Temperature: 79°F , 26°C
Dew Point: 72°F , 22°C
Humidity: 79%
Barometer: 30.00 inHg , 1015.9 hPa
Clouds: Clear
Visibility: 10 miles , 16 km
2020/08/12 11:56 KASH 121156Z 29007KT 10SM CLR 26/22 A3000 RMK AO2 SLP163 T02560217 10256 20233 51016
 
KBOS - Boston, Massachusetts, USA
Distance from station: E 26mi, 42km
Updated: Wed, 12-Aug-2020 7:54am EDT
Mostly cloudy
Mostly cloudy
 Wind from W
Wind: W 12 mph , 19 km/h
Temperature: 81°F , 27°C
Heat Index: 85°F , 29°C
Dew Point: 70°F , 21°C
Humidity: 70%
Barometer: 29.99 inHg , 1015.6 hPa
Clouds: Mostly cloudy
Visibility: 10 miles , 16 km
Cloud details: Partly cloudy 14000 ft
Mostly cloudy 25000 ft
2020/08/12 11:54 KBOS 121154Z 26010KT 10SM SCT140 BKN250 27/21 A2999 RMK AO2 SLP156 T02670211 10267 20233 53015
KLWM - Lawrence, Massachusetts, USA
Distance from station: NE 29mi, 47km
Updated: Wed, 12-Aug-2020 7:54am EDT
Clear
Clear
 Wind from WSW
Wind: WSW 7 mph , 11 km/h
Temperature: 79°F , 26°C
Dew Point: 70°F , 21°C
Humidity: 74%
Barometer: 30.01 inHg , 1016.3 hPa
Clouds: Clear
Visibility: 10 miles , 16 km
2020/08/12 11:54 KLWM 121154Z 24006KT 10SM CLR 26/21 A3001 RMK AO2 SLP159 T02560211 10256 20244 51016
 
KBVY - Beverly, Massachusetts, USA
Distance from station: ENE 33mi, 54km
Updated: Wed, 12-Aug-2020 7:53am EDT
Clear
Clear
 Wind from WSW
Wind: WSW 7 mph , 11 km/h
Temperature: 79°F , 26°C
Dew Point: 70°F , 21°C
Humidity: 74%
Barometer: 29.98 inHg , 1015.2 hPa
Clouds: Clear
Visibility: 10 miles , 16 km
2020/08/12 11:53 KBVY 121153Z 25006KT 10SM CLR 26/21 A2998 RMK AO2 SLP146 T02560211 10256 20244 52015
KSFZ - Pawtucket, Rhode Island, USA
Distance from station: S 34mi, 54km
Updated: Wed, 12-Aug-2020 7:56am EDT
Mostly cloudy
Mostly cloudy
 Wind from WSW
Wind: WSW 8 mph , 13 km/h
Temperature: 75°F , 24°C
Dew Point: 73°F , 23°C
Humidity: 94%
Barometer: 30.03 inHg , 1016.9 hPa
Clouds: Mostly cloudy
Visibility: 10 miles , 16 km
Cloud details: Mostly cloudy 800 ft
2020/08/12 11:56 KSFZ 121156Z AUTO 25007KT 10SM BKN008 24/23 A3003 RMK AO2 SLP113 60000 T02440233 10244 20222 53015 TSNO
 
KAFN - Jaffrey, New Hampshire, USA
Distance from station: NW 36mi, 59km
Updated: Wed, 12-Aug-2020 7:52am EDT
Clear
Clear
 Wind from varies
Wind: varies 3 mph , 6 km/h
Temperature: 73°F , 23°C
Dew Point: 66°F , 19°C
Humidity: 78%
Barometer: 30.05 inHg , 1017.6 hPa
Clouds: Clear
Visibility: 10 miles , 16 km
2020/08/12 11:52 KAFN 121152Z AUTO VRB03KT 10SM CLR 23/19 A3005 RMK AO2 SLP173 T02330189 10233 20217 53015 TSNO
KMHT - Manchester, New Hampshire, USA
Distance from station: N 37mi, 59km
Updated: Wed, 12-Aug-2020 7:53am EDT
Mostly cloudy
Mostly cloudy
 Wind from W
Wind: W 7 mph , 11 km/h
Temperature: 79°F , 26°C
Dew Point: 68°F , 20°C
Humidity: 70%
Barometer: 29.98 inHg , 1015.2 hPa
Clouds: Mostly cloudy
Visibility: 10 miles , 16 km
Cloud details: Mostly cloudy 12000 ft
Mostly cloudy 25000 ft
2020/08/12 11:53 KMHT 121153Z 28006KT 10SM BKN120 BKN250 26/20 A2998 RMK AO2 SLP159 T02610200 10261 20244 53016
 
KORE - Orange, Massachusetts, USA
Distance from station: WNW 40mi, 65km
Updated: Wed, 12-Aug-2020 7:52am EDT
Clear
Clear
 Wind from NW
Wind: NW 6 mph , 9 km/h
Temperature: 75°F , 24°C
Dew Point: 70°F , 21°C
Humidity: 83%
Barometer: 30.04 inHg , 1017.3 hPa
Clouds: Clear
Visibility: 10 miles , 16 km
2020/08/12 11:52 KORE 121152Z AUTO 32005KT 10SM CLR 24/21 A3004 RMK AO2 SLP168 60001 70001 T02390211 10244 20217 53013 TSNO
KTAN - Taunton, Massachusetts, USA
Distance from station: SE 45mi, 72km
Updated: Wed, 12-Aug-2020 7:52am EDT
Overcast
Overcast
 Wind from SSW
Wind: SSW 5 mph , 7 km/h
Temperature: 81°F , 27°C
Heat Index: 86°F , 30°C
Dew Point: 73°F , 23°C
Humidity: 79%
Barometer: 30.00 inHg , 1015.9 hPa
Clouds: Overcast
Visibility: 10 miles , 16 km
Cloud details: Mostly cloudy 1400 ft
Overcast 2100 ft
2020/08/12 11:52 KTAN 121152Z AUTO 21004KT 10SM BKN014 OVC021 27/23 A3000 RMK AO2 SLP157 T02670233 10272 20250 53011 TSNO
 
KPVD - Providence/Green, Rhode Island, USA
Distance from station: S 48mi, 77km
Updated: Wed, 12-Aug-2020 7:51am EDT
Patches of fog, Mostly cloudy
Patches of fog, Mostly cloudy
 Wind from W
Wind: W 7 mph , 11 km/h
Temperature: 79°F , 26°C
Dew Point: 75°F , 24°C
Humidity: 89%
Barometer: 30.01 inHg , 1016.3 hPa
Summary: Patches of Fog
Clouds: Mostly cloudy
Visibility: 10 miles , 16 km
Cloud details: Mostly cloudy 1000 ft
Mostly cloudy 22000 ft
2020/08/12 11:51 KPVD 121151Z 26006KT 10SM BCFG BKN010 BKN220 26/24 A3001 RMK AO2 SLP162 BCFG SW 60001 70001 T02560239 10256 20233 51010
KGHG - Marshfield, Massachusetts, USA
Distance from station: ESE 49mi, 79km
Updated: Wed, 12-Aug-2020 7:55am EDT
Few Clouds
Few Clouds
 Wind from SW
Wind: SW 9 mph , 15 km/h, Gust: 17 mph , 28 km/h
Temperature: 82°F , 28°C
Heat Index: 89°F , 32°C
Dew Point: 75°F , 24°C
Humidity: 79%
Barometer: 29.99 inHg , 1015.6 hPa
Clouds: Few Clouds
Visibility: 10 miles , 16 km
Cloud details: Few Clouds 1400 ft
Few Clouds 11000 ft
2020/08/12 11:55 KGHG 121155Z AUTO 23008G15KT 180V270 10SM FEW014 FEW110 28/24 A2999 RMK AO2
 
KEEN - Keene/Dillant, New Hampshire, USA
Distance from station: NW 50mi, 81km
Updated: Wed, 12-Aug-2020 7:56am EDT
Mist, Partly cloudy
Mist, Partly cloudy
 Wind from calm
Wind: Calm
Temperature: 72°F , 22°C
Dew Point: 72°F , 22°C
Humidity: 100%
Barometer: 30.03 inHg , 1016.9 hPa
Summary: Mist
Clouds: Partly cloudy
Visibility: 4 miles , 6 km
Cloud details: Partly cloudy 300 ft
2020/08/12 11:56 KEEN 121156Z AUTO 00000KT 4SM BR SCT003 22/22 A3003 RMK AO2 SLP169 60003 70006 T02170217 10222 20200 53014 TSNO $